createdAt,value
2018-06-21T00:00:20.470Z,91.76
2018-06-21T00:02:52.963Z,91.71
2018-06-21T00:08:02.234Z,90.41
2018-06-21T00:10:34.642Z,91.33
2018-06-21T00:13:07.429Z,94.36
2018-06-21T00:15:39.512Z,93.70
2018-06-21T00:18:12.213Z,94.15
2018-06-21T00:20:43.450Z,94.66
2018-06-21T00:23:17.635Z,94.40
2018-06-21T00:28:27.928Z,93.21
2018-06-21T00:33:43.212Z,91.87
2018-06-21T00:36:16.429Z,91.25
2018-06-21T00:38:48.715Z,91.90
2018-06-21T00:41:21.744Z,90.02
2018-06-21T00:43:53.434Z,89.91
2018-06-21T00:46:25.586Z,91.22
2018-06-21T00:48:58.065Z,91.87
2018-06-21T00:51:31.308Z,90.20
2018-06-21T00:54:03.672Z,92.24
2018-06-21T00:56:37.182Z,92.51
2018-06-21T01:01:46.026Z,93.80
2018-06-21T01:06:55.333Z,92.84
2018-06-21T01:09:28.672Z,92.44
2018-06-21T01:14:37.586Z,92.41
2018-06-21T01:17:10.249Z,93.51
2018-06-21T01:19:42.730Z,93.26
2018-06-21T01:22:16.540Z,93.29
2018-06-21T01:24:48.769Z,92.63
2018-06-21T01:27:21.980Z,93.17
2018-06-21T01:29:53.958Z,93.65
2018-06-21T01:35:01.336Z,93.40
2018-06-21T01:37:35.128Z,94.44
2018-06-21T01:40:08.030Z,95.46
2018-06-21T01:42:40.611Z,95.08
2018-06-21T01:45:15.232Z,94.40
2018-06-21T01:47:49.378Z,94.36
2018-06-21T01:52:58.471Z,93.20
2018-06-21T01:58:05.070Z,91.77
2018-06-21T02:00:34.173Z,91.58
2018-06-21T02:03:03.498Z,91.67
2018-06-21T02:14:08.608Z,91.15
2018-06-21T02:16:37.632Z,91.51
2018-06-21T02:19:07.940Z,91.82
2018-06-21T02:21:38.356Z,93.59
2018-06-21T02:24:07.399Z,94.20
2018-06-21T02:31:48.185Z,93.46
2018-06-21T02:36:53.281Z,93.81
2018-06-21T02:41:58.208Z,93.06
2018-06-21T02:44:29.450Z,93.00
2018-06-21T02:46:58.518Z,93.79
2018-06-21T02:49:27.591Z,94.36
2018-06-21T02:51:56.674Z,94.01
2018-06-21T02:57:02.782Z,94.62
2018-06-21T02:59:32.928Z,95.41
2018-06-21T03:02:04.089Z,95.92
2018-06-21T03:07:09.063Z,96.27
2018-06-21T03:09:38.105Z,95.41
2018-06-21T03:12:07.165Z,96.42
2018-06-21T03:14:36.226Z,97.23
2018-06-21T03:17:07.390Z,97.25
2018-06-21T03:24:48.061Z,97.55
2018-06-21T03:27:17.129Z,98.52
2018-06-21T03:29:49.180Z,98.19
2018-06-21T03:32:18.893Z,98.39
2018-06-21T03:34:48.906Z,98.46
2018-06-21T03:37:17.965Z,97.35
2018-06-21T03:39:47.149Z,98.36
2018-06-21T03:42:16.375Z,97.05
2018-06-21T03:44:46.416Z,97.53
2018-06-21T03:47:15.465Z,97.53
2018-06-21T03:49:44.708Z,99.08
2018-06-21T03:52:13.809Z,99.23
2018-06-21T03:54:42.850Z,99.81
2018-06-21T03:57:11.929Z,99.38
2018-06-21T04:02:16.701Z,98.36
2018-06-21T04:04:45.966Z,97.99
2018-06-21T04:07:15.944Z,97.77
2018-06-21T04:09:45.033Z,97.54
2018-06-21T04:12:14.470Z,97.60
2018-06-21T04:14:43.861Z,97.97
2018-06-21T04:17:12.920Z,97.70
2018-06-21T04:19:41.983Z,97.55
2018-06-21T04:22:11.217Z,96.39
2018-06-21T04:24:40.311Z,96.80
2018-06-21T04:27:09.353Z,97.15
2018-06-21T04:29:38.430Z,96.83
2018-06-21T04:32:07.732Z,96.78
2018-06-21T04:34:37.702Z,96.75
2018-06-21T04:37:07.678Z,95.71
2018-06-21T04:39:36.750Z,96.34
2018-06-21T04:42:06.759Z,96.70
2018-06-21T04:47:11.766Z,95.94
2018-06-21T04:49:41.251Z,95.26
2018-06-21T04:52:10.316Z,95.18
2018-06-21T04:54:39.381Z,94.60
2018-06-21T04:57:08.774Z,94.38
2018-06-21T04:59:37.816Z,93.82
2018-06-21T05:02:06.871Z,92.52
2018-06-21T05:04:36.333Z,92.09
2018-06-21T05:09:41.115Z,91.38
2018-06-21T05:12:10.251Z,91.39
2018-06-21T05:14:40.205Z,91.53
2018-06-21T05:17:09.263Z,92.25
2018-06-21T05:19:38.444Z,90.91
2018-06-21T05:22:07.743Z,89.08
2018-06-21T05:24:36.829Z,89.12
2018-06-21T05:27:05.892Z,88.92
2018-06-21T05:29:35.050Z,88.72
2018-06-21T05:32:04.162Z,86.91
2018-06-21T05:34:33.195Z,86.25
2018-06-21T05:37:02.360Z,84.82
2018-06-21T05:39:31.415Z,84.00
2018-06-21T05:42:00.457Z,84.19
2018-06-21T05:44:31.969Z,84.07
2018-06-21T05:52:15.568Z,79.55
2018-06-21T05:54:51.639Z,78.49
2018-06-21T05:57:24.756Z,78.69
2018-06-21T05:59:56.524Z,77.57
2018-06-21T06:02:28.325Z,77.24
2018-06-21T06:05:13.372Z,75.10
2018-06-21T06:07:47.987Z,75.62
2018-06-21T06:10:19.751Z,74.87
2018-06-21T06:12:55.080Z,74.98
2018-06-21T06:15:25.978Z,74.55
2018-06-21T06:20:33.935Z,74.03
2018-06-21T06:25:45.396Z,71.61
2018-06-21T06:30:54.313Z,71.29
2018-06-21T06:36:05.246Z,69.88
2018-06-21T06:38:38.709Z,68.59
2018-06-21T06:41:10.515Z,68.87
2018-06-21T06:43:42.574Z,67.80
2018-06-21T06:46:17.170Z,66.27
2018-06-21T06:48:48.035Z,66.22
2018-06-21T06:51:29.780Z,64.89
2018-06-21T06:54:09.313Z,66.23
2018-06-21T06:56:40.505Z,67.21
2018-06-21T06:59:24.044Z,68.48
2018-06-21T07:01:56.446Z,69.83
2018-06-21T07:04:31.880Z,67.30
2018-06-21T07:07:04.026Z,68.32
2018-06-21T07:09:38.587Z,64.09
2018-06-21T07:12:09.201Z,65.25
2018-06-21T07:14:42.255Z,66.29
2018-06-21T07:17:13.492Z,65.71
2018-06-21T07:19:46.294Z,64.67
2018-06-21T07:22:16.818Z,64.75
2018-06-21T07:24:52.341Z,65.09
2018-06-21T07:27:25.157Z,63.07
2018-06-21T07:35:10.081Z,62.24
2018-06-21T07:37:53.453Z,62.91
2018-06-21T07:40:25.881Z,62.82
2018-06-21T07:43:03.649Z,61.60
2018-06-21T07:45:37.725Z,60.02
2018-06-21T07:48:10.600Z,60.24
2018-06-21T07:50:42.209Z,61.23
2018-06-21T07:53:14.464Z,58.70
2018-06-21T07:55:46.628Z,59.35
2018-06-21T07:58:19.745Z,57.14
2018-06-21T08:00:52.130Z,59.19
2018-06-21T08:03:25.060Z,58.08
2018-06-21T08:05:57.431Z,58.42
2018-06-21T08:08:30.665Z,56.92
2018-06-21T08:13:40.775Z,57.99
2018-06-21T08:16:13.516Z,59.84
2018-06-21T08:19:00.027Z,59.93
2018-06-21T08:21:30.471Z,57.13
2018-06-21T08:24:04.224Z,58.80
2018-06-21T08:26:41.217Z,56.75
2018-06-21T08:29:12.817Z,55.10
2018-06-21T08:31:46.134Z,55.45
2018-06-21T08:34:18.940Z,54.70
2018-06-21T08:36:56.852Z,53.81
2018-06-21T08:39:31.383Z,53.83
2018-06-21T08:42:04.707Z,53.61
2018-06-21T08:44:37.335Z,53.64
2018-06-21T08:47:09.124Z,52.71
2018-06-21T08:49:41.784Z,53.39
2018-06-21T08:52:12.315Z,54.25
2018-06-21T08:54:44.154Z,56.31
2018-06-21T08:57:16.449Z,55.67
2018-06-21T08:59:48.432Z,57.35
2018-06-21T09:02:20.884Z,58.94
2018-06-21T09:07:31.585Z,58.52
2018-06-21T09:10:04.482Z,54.64
2018-06-21T09:15:11.663Z,53.28
2018-06-21T09:20:21.378Z,53.36
2018-06-21T09:22:56.599Z,52.59
2018-06-21T09:25:44.391Z,53.08
2018-06-21T09:28:14.591Z,51.74
2018-06-21T09:30:47.568Z,51.84
2018-06-21T09:33:19.197Z,53.92
2018-06-21T09:35:50.949Z,54.24
2018-06-21T09:38:21.145Z,49.97
2018-06-21T09:43:32.046Z,49.54
2018-06-21T09:46:01.431Z,45.92
2018-06-21T09:48:30.668Z,46.87
2018-06-21T09:51:01.200Z,48.23
2018-06-21T09:53:30.269Z,47.56
2018-06-21T09:56:00.298Z,49.35
2018-06-21T09:58:29.372Z,49.21
2018-06-21T10:00:58.663Z,51.33
2018-06-21T10:03:32.902Z,50.33
2018-06-21T10:06:01.959Z,46.57
2018-06-21T10:08:46.429Z,42.57
2018-06-21T10:11:15.473Z,42.72
2018-06-21T10:13:50.307Z,42.07
2018-06-21T10:16:19.361Z,42.09
2018-06-21T10:18:48.414Z,43.18
2018-06-21T10:21:17.473Z,43.82
2018-06-21T10:23:51.111Z,41.55
2018-06-21T10:26:21.126Z,40.81
2018-06-21T10:28:51.144Z,41.75
2018-06-21T10:31:21.280Z,40.48
2018-06-21T10:33:50.341Z,40.30
2018-06-21T10:39:07.088Z,40.60
2018-06-21T10:41:36.282Z,42.60
2018-06-21T10:44:05.309Z,39.56
2018-06-21T10:46:34.379Z,39.41
2018-06-21T10:49:04.593Z,41.08
2018-06-21T10:51:33.808Z,40.56
2018-06-21T10:54:03.551Z,37.77
2018-06-21T10:56:33.516Z,38.78
2018-06-21T10:59:17.946Z,37.90
2018-06-21T11:04:27.317Z,40.30
2018-06-21T11:06:56.601Z,42.41
2018-06-21T11:09:25.645Z,42.03
2018-06-21T11:11:54.701Z,45.24
2018-06-21T11:14:23.865Z,42.64
2018-06-21T11:16:52.932Z,39.61
2018-06-21T11:19:22.860Z,41.43
2018-06-21T11:21:55.712Z,40.71
2018-06-21T11:24:24.749Z,38.16
2018-06-21T11:26:54.064Z,37.82
2018-06-21T11:29:23.167Z,40.26
2018-06-21T11:32:01.210Z,41.86
2018-06-21T11:34:30.316Z,43.25
2018-06-21T11:37:06.738Z,41.65
2018-06-21T11:39:35.829Z,40.49
2018-06-21T11:42:06.127Z,37.15
2018-06-21T11:44:36.044Z,37.16
2018-06-21T11:47:06.650Z,39.60
2018-06-21T11:49:36.073Z,41.10
2018-06-21T11:52:06.330Z,43.25
2018-06-21T11:54:36.290Z,45.77
2018-06-21T11:59:41.865Z,49.17
2018-06-21T12:02:11.642Z,49.55
2018-06-21T12:04:44.446Z,48.41
2018-06-21T12:07:14.609Z,47.53
2018-06-21T12:12:19.729Z,50.60
2018-06-21T12:14:58.760Z,49.48
2018-06-21T12:17:34.817Z,50.97
2018-06-21T12:20:07.003Z,59.83
2018-06-21T12:22:44.731Z,65.91
2018-06-21T12:25:24.041Z,63.97
2018-06-21T12:27:53.637Z,66.06
2018-06-21T12:30:24.922Z,66.25
2018-06-21T12:35:31.215Z,60.66
2018-06-21T12:38:01.052Z,54.25
2018-06-21T12:40:30.274Z,49.05
2018-06-21T12:43:00.296Z,46.82
2018-06-21T12:45:30.700Z,44.37
2018-06-21T12:48:07.151Z,43.59
2018-06-21T12:53:12.561Z,46.77
2018-06-21T12:58:25.011Z,39.60
2018-06-21T13:01:06.838Z,35.82
2018-06-21T13:04:01.434Z,33.98
2018-06-21T13:06:30.474Z,34.09
2018-06-21T13:14:21.980Z,39.55
2018-06-21T13:19:43.583Z,41.36
2018-06-21T13:22:12.644Z,48.37
2018-06-21T13:27:17.502Z,51.86
2018-06-21T13:29:47.522Z,55.35
2018-06-21T13:34:53.382Z,61.30
2018-06-21T13:37:22.423Z,64.65
2018-06-21T13:39:52.502Z,65.07
2018-06-21T13:42:21.552Z,66.62
2018-06-21T13:44:54.927Z,66.22
2018-06-21T13:47:24.174Z,64.51
2018-06-21T13:49:53.201Z,64.23
2018-06-21T13:52:31.496Z,64.40
2018-06-21T13:55:04.483Z,62.79
2018-06-21T13:57:45.413Z,63.57
2018-06-21T14:00:18.459Z,61.77
2018-06-21T14:02:51.024Z,57.02
2018-06-21T14:05:24.282Z,53.78
2018-06-21T14:07:57.864Z,50.69
2018-06-21T14:10:39.774Z,49.85
2018-06-21T14:13:12.014Z,47.57
2018-06-21T14:15:44.638Z,43.71
2018-06-21T14:18:13.677Z,40.06
2018-06-21T14:20:42.778Z,38.78
2018-06-21T14:23:11.787Z,37.93
2018-06-21T14:25:41.793Z,37.27
2018-06-21T14:28:11.037Z,37.60
2018-06-21T14:30:40.090Z,36.53
2018-06-21T14:33:09.184Z,36.32
2018-06-21T14:35:38.287Z,38.75
2018-06-21T14:38:07.349Z,41.63
2018-06-21T14:40:36.430Z,43.46
2018-06-21T14:43:05.578Z,46.00
2018-06-21T14:45:36.025Z,48.35
2018-06-21T14:48:05.114Z,48.84
2018-06-21T14:50:34.136Z,49.59
2018-06-21T14:53:03.549Z,49.34
2018-06-21T14:55:32.621Z,49.39
2018-06-21T14:58:02.065Z,49.04
2018-06-21T15:00:31.118Z,48.39
2018-06-21T15:03:01.054Z,48.19
2018-06-21T15:05:35.829Z,47.80
2018-06-21T15:08:05.138Z,45.24
2018-06-21T15:10:34.209Z,41.44
2018-06-21T15:13:03.287Z,38.59
2018-06-21T15:15:32.522Z,39.98
2018-06-21T15:18:01.598Z,41.78
2018-06-21T15:20:31.561Z,44.52
2018-06-21T15:23:00.767Z,43.12
2018-06-21T15:25:31.291Z,42.73
2018-06-21T15:28:00.332Z,41.84
2018-06-21T15:33:05.217Z,36.66
2018-06-21T15:35:34.340Z,36.25
2018-06-21T15:38:03.530Z,37.29
2018-06-21T15:40:33.307Z,40.38
2018-06-21T15:43:10.274Z,40.96
2018-06-21T15:45:39.534Z,41.43
2018-06-21T15:53:20.149Z,40.79
2018-06-21T15:55:52.554Z,39.40
2018-06-21T15:58:21.638Z,40.93
2018-06-21T16:00:50.672Z,41.27
2018-06-21T16:03:19.724Z,40.50
2018-06-21T16:05:53.768Z,39.37
2018-06-21T16:08:22.811Z,35.48
2018-06-21T16:11:04.367Z,34.28
2018-06-21T16:13:33.542Z,36.13
2018-06-21T16:18:38.446Z,37.36
2018-06-21T16:23:43.273Z,37.48
2018-06-21T16:26:12.363Z,35.56
2018-06-21T16:28:41.402Z,34.53
2018-06-21T16:33:46.246Z,36.66
2018-06-21T16:36:18.675Z,39.38
2018-06-21T16:38:56.404Z,40.21
2018-06-21T16:41:25.545Z,39.98
2018-06-21T16:44:02.137Z,41.13
2018-06-21T16:46:31.209Z,41.47
2018-06-21T16:49:01.996Z,42.07
2018-06-21T16:51:31.054Z,41.92
2018-06-21T16:56:46.598Z,40.54
2018-06-21T17:02:01.607Z,39.77
2018-06-21T17:04:30.655Z,39.72
2018-06-21T17:09:35.467Z,40.75
2018-06-21T17:12:04.501Z,41.17
2018-06-21T17:14:34.181Z,42.25
2018-06-21T17:17:03.245Z,42.68
2018-06-21T17:19:32.293Z,42.95
2018-06-21T17:22:01.496Z,43.95
2018-06-21T17:24:34.065Z,45.38
2018-06-21T17:27:03.130Z,45.50
2018-06-21T17:29:32.181Z,47.37
2018-06-21T17:32:03.151Z,46.92
2018-06-21T17:34:33.156Z,45.86
2018-06-21T17:37:03.352Z,45.95
2018-06-21T17:39:40.737Z,46.78
2018-06-21T17:42:09.963Z,47.47
2018-06-21T17:44:39.022Z,48.11
2018-06-21T17:47:08.070Z,48.71
2018-06-21T17:49:38.279Z,47.70
2018-06-21T17:52:07.365Z,48.21
2018-06-21T17:57:12.369Z,48.54
2018-06-21T17:59:41.415Z,48.51
2018-06-21T18:02:10.466Z,48.44
2018-06-21T18:04:39.603Z,49.59
2018-06-21T18:07:08.656Z,50.71
2018-06-21T18:12:13.536Z,52.53
2018-06-21T18:14:42.615Z,54.30
2018-06-21T18:19:47.503Z,56.08
2018-06-21T18:22:16.637Z,55.86
2018-06-21T18:24:45.897Z,55.83
2018-06-21T18:27:14.984Z,56.89
2018-06-21T18:29:44.041Z,57.67
2018-06-21T18:32:14.499Z,58.45
2018-06-21T18:34:43.565Z,59.00
2018-06-21T18:37:14.630Z,59.79
2018-06-21T18:39:43.693Z,59.48
2018-06-21T18:42:13.099Z,59.60
2018-06-21T18:44:43.233Z,59.67
2018-06-21T18:47:12.268Z,59.41
2018-06-21T18:49:41.321Z,60.66
2018-06-21T18:52:10.469Z,60.21
2018-06-21T18:54:39.519Z,61.74
2018-06-21T18:57:08.573Z,62.11
2018-06-21T18:59:37.909Z,62.81
2018-06-21T19:02:06.969Z,62.61
2018-06-21T19:04:36.083Z,62.58
2018-06-21T19:07:06.189Z,62.52
2018-06-21T19:12:32.630Z,63.48
2018-06-21T19:15:01.913Z,62.85
2018-06-21T19:20:06.715Z,63.41
2018-06-21T19:22:35.868Z,62.75
2018-06-21T19:25:04.976Z,63.32
2018-06-21T19:27:33.987Z,63.67
2018-06-21T19:30:03.736Z,63.71
2018-06-21T19:32:32.819Z,63.55
2018-06-21T19:35:01.869Z,63.71
2018-06-21T19:37:31.910Z,64.01
2018-06-21T19:40:02.101Z,65.37
2018-06-21T19:42:31.159Z,65.14
2018-06-21T19:45:00.214Z,63.30
2018-06-21T19:50:05.077Z,63.95
2018-06-21T19:52:35.102Z,63.92
2018-06-21T19:55:04.294Z,63.54
2018-06-21T19:57:35.842Z,64.14
2018-06-21T20:00:04.948Z,63.20
2018-06-21T20:02:33.993Z,62.23
2018-06-21T20:05:03.157Z,62.48
2018-06-21T20:07:32.347Z,62.55
2018-06-21T20:10:01.389Z,62.87
2018-06-21T20:15:06.234Z,62.97
2018-06-21T20:20:11.001Z,63.13
2018-06-21T20:22:40.078Z,63.73
2018-06-21T20:25:09.337Z,62.93
2018-06-21T20:27:38.613Z,64.29
2018-06-21T20:30:07.672Z,65.56
2018-06-21T20:32:36.725Z,64.79
2018-06-21T20:35:05.827Z,65.13
2018-06-21T20:37:34.884Z,65.52
2018-06-21T20:40:03.929Z,64.99
2018-06-21T20:42:33.126Z,64.61
2018-06-21T20:45:02.276Z,64.79
2018-06-21T20:50:07.602Z,65.17
2018-06-21T20:52:36.667Z,65.38
2018-06-21T20:55:05.721Z,65.42
2018-06-21T20:57:35.119Z,65.40
2018-06-21T21:00:04.165Z,64.98
2018-06-21T21:02:33.235Z,65.06
2018-06-21T21:05:02.284Z,65.48
2018-06-21T21:07:31.336Z,65.13
2018-06-21T21:10:00.387Z,66.05
2018-06-21T21:12:30.449Z,64.76
2018-06-21T21:14:59.548Z,62.21
2018-06-21T21:17:32.432Z,59.70
2018-06-21T21:20:01.710Z,57.93
2018-06-21T21:22:30.762Z,57.79
2018-06-21T21:24:59.830Z,56.48
2018-06-21T21:27:29.525Z,54.89
2018-06-21T21:29:58.595Z,51.91
2018-06-21T21:32:27.651Z,52.12
2018-06-21T21:34:56.893Z,49.04
2018-06-21T21:37:26.185Z,49.84
2018-06-21T21:47:43.218Z,49.56
2018-06-21T21:50:12.278Z,49.52
2018-06-21T21:52:41.392Z,49.54
2018-06-21T21:55:10.738Z,46.86
2018-06-21T21:57:39.786Z,47.46
2018-06-21T22:00:08.856Z,47.45
2018-06-21T22:02:43.979Z,46.32
2018-06-21T22:05:14.531Z,46.64
2018-06-21T22:07:45.541Z,47.35
2018-06-21T22:10:16.699Z,46.15
2018-06-21T22:12:48.717Z,46.86
2018-06-21T22:15:19.637Z,47.24
2018-06-21T22:20:27.659Z,46.18
2018-06-21T22:23:00.349Z,46.81
2018-06-21T22:25:33.317Z,46.28
2018-06-21T22:30:43.759Z,47.38
2018-06-21T22:33:14.949Z,47.00
2018-06-21T22:35:45.625Z,46.45
2018-06-21T22:38:16.692Z,46.82
2018-06-21T22:40:49.945Z,46.37
2018-06-21T22:43:21.188Z,46.91
2018-06-21T22:45:52.909Z,45.45
2018-06-21T22:48:24.106Z,46.00
2018-06-21T22:50:56.319Z,45.93
2018-06-21T22:53:29.143Z,46.01
2018-06-21T22:56:03.172Z,45.63
2018-06-21T22:58:36.037Z,45.05
2018-06-21T23:01:08.768Z,45.83
2018-06-21T23:03:41.784Z,46.65
2018-06-21T23:06:14.650Z,46.32
2018-06-21T23:08:47.521Z,45.84
2018-06-21T23:11:19.423Z,45.72
2018-06-21T23:16:27.607Z,44.97
2018-06-21T23:21:37.704Z,45.74
2018-06-21T23:24:09.558Z,45.31
2018-06-21T23:26:43.164Z,45.70
2018-06-21T23:29:15.916Z,45.19
2018-06-21T23:34:25.054Z,45.94
2018-06-21T23:36:58.652Z,46.10
2018-06-21T23:39:33.592Z,45.41
2018-06-21T23:42:08.218Z,46.27
2018-06-21T23:44:41.986Z,46.65
2018-06-21T23:47:14.217Z,46.45
2018-06-21T23:49:46.827Z,46.29
2018-06-21T23:52:19.739Z,47.07
2018-06-21T23:54:52.326Z,47.73
2018-06-21T23:57:25.903Z,48.96
2018-06-21T23:59:58.137Z,47.38
